Time;durP1;ratioP1;P1;durP2;ratioP2;P2;SDS_P1;SDS_P2;PMS_P1;PMS_P2;Temp;Humidity;BMP_temperature;BMP_pressure;BME280_temperature;BME280_humidity;BME280_pressure;Samples;Min_cycle;Max_cycle;Signal;HPM_P1;HPM_P2
2022/10/24 00:02:18;;;;;;;1.97;1.10;;;19.70;99.90;;;;;;5055909;28;20196;-61
2022/10/24 00:04:45;;;;;;;2.00;1.30;;;19.70;99.90;;;;;;5053368;28;20569;-62
2022/10/24 00:07:12;;;;;;;1.27;1.10;;;19.60;99.90;;;;;;5054344;28;20196;-62
2022/10/24 00:09:39;;;;;;;2.30;1.40;;;19.50;99.90;;;;;;5053928;28;20210;-61
2022/10/24 00:12:06;;;;;;;3.07;1.37;;;19.50;99.90;;;;;;5053349;28;20200;-62
2022/10/24 00:14:36;;;;;;;1.97;1.33;;;19.30;99.90;;;;;;5054287;28;20207;-62
2022/10/24 00:17:06;;;;;;;1.40;1.20;;;19.20;99.90;;;;;;5053829;28;20231;-63
2022/10/24 00:19:33;;;;;;;1.53;1.30;;;19.10;99.90;;;;;;5054143;28;20200;-62
2022/10/24 00:21:59;;;;;;;1.93;1.30;;;19.00;99.90;;;;;;5053946;28;20206;-64
2022/10/24 00:24:26;;;;;;;1.50;1.40;;;18.80;99.90;;;;;;5053162;28;20204;-64
2022/10/24 00:26:53;;;;;;;2.33;1.70;;;18.80;99.90;;;;;;5055420;28;20659;-63
2022/10/24 00:29:20;;;;;;;1.50;1.27;;;18.80;99.90;;;;;;5054802;28;20299;-62
2022/10/24 00:31:48;;;;;;;2.43;1.23;;;18.70;99.90;;;;;;5045160;28;20675;-63
2022/10/24 00:34:15;;;;;;;1.38;1.27;;;18.70;99.90;;;;;;5053325;28;20203;-63
2022/10/24 00:36:42;;;;;;;1.37;1.27;;;18.60;99.90;;;;;;5053329;28;20223;-63
2022/10/24 00:39:08;;;;;;;1.30;1.20;;;18.50;99.90;;;;;;5053195;28;20715;-63
2022/10/24 00:41:37;;;;;;;1.93;1.40;;;18.40;99.90;;;;;;5052801;28;20208;-64
2022/10/24 00:44:20;;;;;;;2.40;1.50;;;18.40;99.90;;;;;;5053213;28;20546;-61
2022/10/24 00:46:52;;;;;;;1.50;1.40;;;18.30;99.90;;;;;;5053109;28;20206;-62
2022/10/24 00:49:24;;;;;;;2.23;1.70;;;18.20;99.90;;;;;;5053113;28;20196;-63
2022/10/24 00:51:56;;;;;;;3.77;1.80;;;18.20;99.90;;;;;;5052806;28;20210;-64
2022/10/24 00:54:23;;;;;;;1.63;1.47;;;18.10;99.90;;;;;;5052694;28;20208;-62
2022/10/24 00:56:58;;;;;;;1.63;1.40;;;18.10;99.90;;;;;;5053008;28;20228;-62
2022/10/24 00:59:26;;;;;;;1.50;1.40;;;18.10;99.90;;;;;;5050259;28;20207;-63
2022/10/24 01:01:55;;;;;;;1.60;1.27;;;18.10;99.90;;;;;;5052977;28;20210;-62
2022/10/24 01:04:22;;;;;;;1.93;1.30;;;18.10;99.90;;;;;;5051322;28;20196;-61
2022/10/24 01:07:01;;;;;;;1.30;1.20;;;18.00;99.90;;;;;;5052900;28;20200;-63
2022/10/24 01:09:44;;;;;;;1.40;1.30;;;18.00;99.90;;;;;;5052675;28;20200;-64
2022/10/24 01:12:24;;;;;;;2.20;1.60;;;18.00;99.90;;;;;;5052394;28;20200;-63
2022/10/24 01:14:58;;;;;;;1.83;1.43;;;18.00;99.90;;;;;;5044932;28;20203;-63
2022/10/24 01:17:35;;;;;;;2.07;1.40;;;18.00;99.90;;;;;;5052661;28;20681;-63
2022/10/24 01:20:35;;;;;;;1.67;1.50;;;18.00;99.90;;;;;;5052894;28;20207;-63
2022/10/24 01:23:14;;;;;;;2.17;1.70;;;18.00;99.90;;;;;;5032715;28;20563;-62
2022/10/24 01:25:51;;;;;;;1.80;1.40;;;17.90;99.90;;;;;;5052700;28;20208;-62
2022/10/24 01:28:22;;;;;;;1.80;1.40;;;17.90;99.90;;;;;;5052983;28;20574;-61
2022/10/24 01:30:59;;;;;;;2.07;1.23;;;17.90;99.90;;;;;;5047413;28;20271;-62
2022/10/24 01:33:33;;;;;;;1.57;1.40;;;17.80;99.90;;;;;;5054672;28;20206;-62
2022/10/24 01:36:07;;;;;;;2.53;1.57;;;17.80;99.90;;;;;;5055605;28;20636;-64
2022/10/24 01:38:38;;;;;;;2.40;1.80;;;17.70;99.90;;;;;;5033995;28;20220;-63
2022/10/24 01:41:08;;;;;;;2.27;1.53;;;17.70;99.90;;;;;;5052180;28;20208;-63
2022/10/24 01:43:39;;;;;;;4.27;1.60;;;17.70;99.90;;;;;;5051589;28;20211;-63
2022/10/24 01:46:12;;;;;;;1.50;1.40;;;17.60;99.90;;;;;;5052330;28;20210;-62
2022/10/24 01:48:42;;;;;;;1.37;1.23;;;17.60;99.90;;;;;;5051884;28;20224;-62
2022/10/24 01:51:13;;;;;;;1.70;1.50;;;17.50;99.90;;;;;;5052266;28;20591;-61
2022/10/24 01:53:41;;;;;;;2.10;1.50;;;17.50;99.90;;;;;;5051396;28;20204;-63
2022/10/24 01:56:08;;;;;;;1.97;1.57;;;17.50;99.90;;;;;;5052316;28;20200;-61
2022/10/24 01:58:35;;;;;;;2.17;1.50;;;17.50;99.90;;;;;;5051695;28;20262;-62
2022/10/24 02:01:07;;;;;;;2.03;1.60;;;17.50;99.90;;;;;;5052288;28;20553;-64
2022/10/24 02:03:39;;;;;;;2.47;1.70;;;17.50;99.90;;;;;;5051782;28;20207;-62
2022/10/24 02:06:09;;;;;;;1.83;1.30;;;17.60;99.90;;;;;;5051355;28;20290;-62
2022/10/24 02:08:41;;;;;;;1.70;1.60;;;17.60;99.90;;;;;;5051821;28;20231;-63
2022/10/24 02:11:09;;;;;;;1.50;1.40;;;17.70;99.90;;;;;;5051770;28;20680;-63
2022/10/24 02:13:43;;;;;;;1.90;1.70;;;17.70;99.90;;;;;;5051064;28;20218;-64
2022/10/24 02:16:12;;;;;;;2.10;1.60;;;17.80;99.90;;;;;;5051906;28;20290;-62
2022/10/24 02:18:41;;;;;;;2.33;1.60;;;17.80;99.90;;;;;;5051946;28;20243;-62
2022/10/24 02:21:17;;;;;;;2.50;1.73;;;17.80;99.90;;;;;;5046401;28;20212;-63
2022/10/24 02:23:51;;;;;;;2.17;1.77;;;17.80;99.90;;;;;;5051526;28;20574;-62
2022/10/24 02:26:24;;;;;;;2.67;1.47;;;17.90;99.90;;;;;;5047556;28;20204;-62
2022/10/24 02:28:53;;;;;;;2.27;1.73;;;17.90;99.90;;;;;;5046228;28;20230;-62
2022/10/24 02:31:24;;;;;;;2.07;1.50;;;17.80;99.90;;;;;;5048885;28;20202;-63
2022/10/24 02:33:54;;;;;;;3.00;1.40;;;17.80;99.90;;;;;;5039431;28;20224;-61
2022/10/24 02:36:26;;;;;;;1.60;1.50;;;17.80;99.90;;;;;;5051708;28;20200;-62
2022/10/24 02:38:55;;;;;;;1.40;1.30;;;17.80;99.90;;;;;;5043936;28;20249;-61
2022/10/24 02:41:25;;;;;;;2.43;1.70;;;17.80;99.90;;;;;;5051393;28;20672;-62
2022/10/24 02:43:54;;;;;;;2.63;1.60;;;17.80;99.90;;;;;;5045970;28;20196;-62
2022/10/24 02:46:22;;;;;;;2.10;1.70;;;17.90;99.90;;;;;;5052154;28;20204;-63
2022/10/24 02:48:55;;;;;;;1.97;1.70;;;17.90;99.90;;;;;;5043699;28;20227;-64
2022/10/24 02:51:25;;;;;;;2.17;1.40;;;17.90;99.90;;;;;;5051351;28;20200;-64
2022/10/24 02:53:52;;;;;;;2.67;1.80;;;17.90;99.90;;;;;;5043869;28;20287;-62
2022/10/24 02:56:19;;;;;;;2.47;1.70;;;17.90;99.90;;;;;;5050986;28;20208;-63
2022/10/24 02:58:46;;;;;;;2.03;1.63;;;18.00;99.90;;;;;;5051264;28;20228;-62
2022/10/24 03:01:13;;;;;;;4.20;2.20;;;18.00;99.90;;;;;;5051170;28;20708;-62
2022/10/24 03:03:40;;;;;;;2.23;2.03;;;18.10;99.90;;;;;;5050842;28;20210;-64
2022/10/24 03:06:08;;;;;;;2.60;2.10;;;18.20;99.90;;;;;;5050986;28;20208;-63
2022/10/24 03:08:35;;;;;;;2.40;1.83;;;18.20;99.90;;;;;;5053079;28;20227;-62
2022/10/24 03:11:02;;;;;;;2.80;1.87;;;18.20;99.90;;;;;;5059679;28;20204;-63
2022/10/24 03:13:28;;;;;;;1.80;1.53;;;18.30;99.90;;;;;;5056273;28;20200;-62
2022/10/24 03:15:55;;;;;;;2.63;2.10;;;18.40;99.90;;;;;;5058381;28;20204;-61
2022/10/24 03:18:22;;;;;;;1.90;1.70;;;18.40;99.90;;;;;;5052607;28;20220;-64
2022/10/24 03:20:49;;;;;;;2.30;1.90;;;18.40;99.90;;;;;;5054633;28;20214;-62
2022/10/24 03:23:18;;;;;;;1.57;1.47;;;18.30;99.90;;;;;;5054786;28;20199;-62
2022/10/24 03:25:45;;;;;;;2.17;1.60;;;18.30;99.90;;;;;;5054543;28;20570;-63
2022/10/24 03:28:11;;;;;;;2.00;1.80;;;18.30;99.90;;;;;;5054418;28;20230;-62
2022/10/24 03:30:38;;;;;;;2.07;1.70;;;18.20;99.90;;;;;;5054656;28;20204;-62
2022/10/24 03:33:05;;;;;;;3.30;1.70;;;18.20;99.90;;;;;;5054325;28;20591;-63
2022/10/24 03:35:32;;;;;;;2.63;2.00;;;18.20;99.90;;;;;;5054489;28;20200;-61
2022/10/24 03:37:59;;;;;;;1.83;1.70;;;18.10;99.90;;;;;;5054588;28;20232;-63
2022/10/24 03:40:27;;;;;;;1.77;1.40;;;18.20;99.90;;;;;;5059329;28;20813;-63
2022/10/24 03:42:54;;;;;;;2.13;1.60;;;18.20;99.90;;;;;;5068157;28;20252;-61
2022/10/24 03:45:21;;;;;;;2.00;1.77;;;18.20;99.90;;;;;;5057873;28;20584;-62
2022/10/24 03:47:47;;;;;;;3.10;1.77;;;18.30;99.90;;;;;;5058349;28;20273;-63
2022/10/24 03:50:14;;;;;;;1.63;1.33;;;18.30;99.90;;;;;;5064717;28;20203;-63
2022/10/24 03:52:41;;;;;;;2.73;1.53;;;18.30;99.90;;;;;;5055076;28;20207;-62
2022/10/24 03:55:09;;;;;;;1.77;1.53;;;18.30;99.90;;;;;;5056058;28;20200;-63
2022/10/24 03:57:37;;;;;;;5.13;1.97;;;18.40;99.90;;;;;;5057687;28;20234;-63
2022/10/24 04:00:05;;;;;;;2.10;1.73;;;18.40;99.90;;;;;;5058689;28;20200;-61
2022/10/24 04:02:32;;;;;;;1.97;1.77;;;18.40;99.90;;;;;;5056965;28;20291;-61
2022/10/24 04:04:58;;;;;;;1.67;1.57;;;18.40;99.90;;;;;;5057434;28;20204;-62
2022/10/24 04:07:25;;;;;;;2.23;1.67;;;18.40;99.90;;;;;;5057133;28;20222;-62
2022/10/24 04:09:52;;;;;;;2.33;1.73;;;18.50;99.90;;;;;;5056421;28;20208;-64
2022/10/24 04:12:19;;;;;;;3.53;2.27;;;18.60;99.90;;;;;;5053701;28;20670;-62
2022/10/24 04:14:47;;;;;;;2.23;1.50;;;18.60;99.90;;;;;;5054401;28;20200;-64
2022/10/24 04:17:14;;;;;;;1.70;1.60;;;18.90;99.90;;;;;;5054332;28;20654;-62
2022/10/24 04:19:41;;;;;;;1.80;1.70;;;19.00;99.90;;;;;;5053987;28;20275;-63
2022/10/24 04:22:08;;;;;;;1.73;1.60;;;19.10;99.90;;;;;;5053166;28;20208;-62
2022/10/24 04:24:36;;;;;;;3.83;1.70;;;19.20;99.90;;;;;;5055394;28;20203;-64
2022/10/24 04:27:03;;;;;;;2.10;1.80;;;19.30;99.90;;;;;;5054527;28;20196;-62
2022/10/24 04:29:30;;;;;;;2.53;1.83;;;19.30;99.90;;;;;;5052811;28;20199;-63
2022/10/24 04:31:59;;;;;;;2.00;1.80;;;19.30;99.90;;;;;;5053189;28;20291;-64
2022/10/24 04:34:25;;;;;;;2.10;1.90;;;19.10;99.90;;;;;;5053474;28;20230;-63
2022/10/24 04:36:52;;;;;;;1.93;1.60;;;19.00;99.90;;;;;;5053639;28;20206;-64
2022/10/24 04:39:19;;;;;;;2.63;1.77;;;18.80;99.90;;;;;;5053898;28;20239;-64
2022/10/24 04:41:47;;;;;;;1.73;1.63;;;18.70;99.90;;;;;;5053366;28;20200;-64
2022/10/24 04:44:13;;;;;;;1.73;1.60;;;18.60;99.90;;;;;;5053177;28;20200;-62
2022/10/24 04:46:40;;;;;;;2.33;1.63;;;18.40;99.90;;;;;;5053288;28;20210;-62
2022/10/24 04:49:08;;;;;;;2.37;1.43;;;18.40;99.90;;;;;;5052929;28;20702;-62
2022/10/24 04:51:36;;;;;;;1.70;1.60;;;18.30;99.90;;;;;;5052462;28;20298;-62
2022/10/24 04:54:02;;;;;;;1.57;1.47;;;18.20;99.90;;;;;;5053034;28;20200;-61
2022/10/24 04:56:29;;;;;;;1.80;1.50;;;18.10;99.90;;;;;;5052856;28;20659;-62
2022/10/24 04:58:56;;;;;;;1.60;1.50;;;18.10;99.90;;;;;;5052588;28;20231;-63
2022/10/24 05:01:23;;;;;;;1.50;1.40;;;18.10;99.90;;;;;;5052900;28;20203;-63
2022/10/24 05:03:50;;;;;;;1.90;1.50;;;18.10;99.90;;;;;;5053001;28;20203;-64
2022/10/24 05:06:18;;;;;;;2.17;1.20;;;18.00;99.90;;;;;;5053087;28;20204;-62
2022/10/24 05:08:45;;;;;;;1.40;1.30;;;18.00;99.90;;;;;;5052997;28;20219;-61
2022/10/24 05:11:11;;;;;;;1.40;1.30;;;17.80;99.90;;;;;;5052696;28;20662;-62
2022/10/24 05:13:40;;;;;;;1.30;1.20;;;17.70;99.90;;;;;;5052588;28;20204;-62
2022/10/24 05:16:07;;;;;;;1.57;1.13;;;17.60;99.90;;;;;;5052927;28;20286;-62
2022/10/24 05:18:34;;;;;;;0.93;0.93;;;17.50;99.90;;;;;;5052394;28;20250;-63
2022/10/24 05:21:01;;;;;;;1.00;1.00;;;17.50;99.90;;;;;;5052411;28;20203;-63
2022/10/24 05:23:29;;;;;;;1.30;1.17;;;17.40;99.90;;;;;;5051736;28;20562;-62
2022/10/24 05:25:56;;;;;;;1.27;1.20;;;17.40;99.90;;;;;;5047427;28;20200;-62
2022/10/24 05:28:23;;;;;;;1.30;1.20;;;17.40;99.90;;;;;;5052056;28;20228;-62
2022/10/24 05:30:50;;;;;;;1.10;1.10;;;17.40;99.90;;;;;;5051921;28;20200;-61
2022/10/24 05:33:17;;;;;;;1.20;1.10;;;17.30;99.90;;;;;;5051656;28;20200;-62
2022/10/24 05:35:44;;;;;;;1.73;1.47;;;17.30;99.90;;;;;;5059343;28;20200;-62
2022/10/24 05:38:11;;;;;;;1.53;1.43;;;17.20;99.90;;;;;;5051885;28;20220;-63
2022/10/24 05:40:39;;;;;;;1.50;1.40;;;17.20;99.90;;;;;;5051597;28;20222;-62
2022/10/24 05:43:06;;;;;;;1.43;1.27;;;17.10;99.90;;;;;;5051581;28;20200;-62
2022/10/24 05:45:33;;;;;;;1.20;1.10;;;17.10;99.90;;;;;;5051728;28;20655;-63
2022/10/24 05:48:00;;;;;;;1.20;1.10;;;17.00;99.90;;;;;;5051436;28;20220;-62
2022/10/24 05:50:28;;;;;;;1.10;1.10;;;17.00;99.90;;;;;;5058144;28;20199;-63
2022/10/24 05:52:55;;;;;;;1.97;1.23;;;17.00;99.90;;;;;;5051138;28;20196;-64
2022/10/24 05:55:22;;;;;;;1.23;1.07;;;17.10;99.90;;;;;;5056812;28;20219;-62
2022/10/24 05:57:50;;;;;;;1.03;1.00;;;17.10;99.90;;;;;;5058392;28;20227;-63
2022/10/24 06:00:18;;;;;;;1.30;1.20;;;17.20;99.90;;;;;;5057220;28;20223;-62
2022/10/24 06:02:45;;;;;;;1.30;1.20;;;17.10;99.90;;;;;;5056534;28;20200;-63
2022/10/24 06:05:13;;;;;;;1.80;1.33;;;17.00;99.90;;;;;;5058832;28;20195;-61
2022/10/24 06:07:41;;;;;;;1.40;1.10;;;17.10;99.90;;;;;;5052133;28;20234;-63
2022/10/24 06:10:09;;;;;;;1.20;1.10;;;17.10;99.90;;;;;;5053983;28;20824;-62
2022/10/24 06:12:36;;;;;;;1.20;1.10;;;17.10;99.90;;;;;;5051390;28;20242;-62
2022/10/24 06:15:07;;;;;;;1.37;1.27;;;17.00;99.90;;;;;;5051265;28;20253;-62
2022/10/24 06:17:34;;;;;;;1.33;1.20;;;17.00;99.90;;;;;;5049919;28;20712;-61
2022/10/24 06:20:01;;;;;;;1.27;1.17;;;16.90;99.90;;;;;;5050705;28;20302;-62
2022/10/24 06:22:28;;;;;;;1.27;1.27;;;16.90;99.90;;;;;;5051194;28;20654;-63
2022/10/24 06:24:56;;;;;;;2.27;1.40;;;16.90;99.90;;;;;;5051825;28;20215;-62
2022/10/24 06:27:23;;;;;;;1.43;1.10;;;16.90;99.90;;;;;;5051120;28;20257;-62
2022/10/24 06:29:50;;;;;;;1.30;1.20;;;16.90;99.90;;;;;;5051418;28;20204;-62
2022/10/24 06:32:18;;;;;;;2.03;1.30;;;16.80;99.90;;;;;;5048659;28;20199;-62
2022/10/24 06:34:45;;;;;;;1.20;1.17;;;16.90;99.90;;;;;;5050833;28;20200;-63
2022/10/24 06:37:12;;;;;;;1.10;1.00;;;16.90;99.90;;;;;;5051585;28;20207;-63
2022/10/24 06:39:39;;;;;;;1.30;1.27;;;16.90;99.90;;;;;;5050407;28;20740;-62
2022/10/24 06:42:06;;;;;;;1.67;1.40;;;16.90;99.90;;;;;;5051235;28;20200;-63
2022/10/24 06:44:32;;;;;;;1.63;1.17;;;17.00;99.90;;;;;;5051243;28;20196;-63
2022/10/24 06:46:59;;;;;;;1.27;1.17;;;17.00;99.90;;;;;;5056652;28;20200;-62
2022/10/24 06:49:27;;;;;;;1.20;1.10;;;17.00;99.90;;;;;;5049100;28;20215;-63
2022/10/24 06:51:54;;;;;;;1.30;1.20;;;17.10;99.90;;;;;;5050573;28;20214;-63
2022/10/24 06:54:21;;;;;;;2.50;1.33;;;17.00;99.90;;;;;;5054410;28;20204;-62
2022/10/24 06:56:48;;;;;;;1.57;1.47;;;16.90;99.90;;;;;;5058425;28;20200;-63
2022/10/24 06:59:17;;;;;;;1.40;1.30;;;16.80;99.90;;;;;;5059432;28;20223;-63
2022/10/24 07:01:44;;;;;;;1.23;1.13;;;16.80;99.90;;;;;;5054238;28;20647;-63
2022/10/24 07:04:11;;;;;;;1.90;1.47;;;16.80;99.90;;;;;;5057684;28;20204;-63
2022/10/24 07:06:40;;;;;;;1.40;1.30;;;16.70;99.90;;;;;;5057285;28;20207;-63
2022/10/24 07:09:07;;;;;;;1.50;1.40;;;16.70;99.90;;;;;;5057262;28;20251;-63
2022/10/24 07:11:34;;;;;;;2.13;1.47;;;16.70;99.90;;;;;;5052653;28;20196;-63
2022/10/24 07:14:01;;;;;;;1.40;1.30;;;16.70;99.90;;;;;;5054467;28;20208;-63
2022/10/24 07:16:28;;;;;;;1.53;1.30;;;16.70;99.90;;;;;;5054383;28;20204;-63
2022/10/24 07:18:55;;;;;;;1.53;1.43;;;16.70;99.90;;;;;;5055051;28;20260;-63
2022/10/24 07:21:24;;;;;;;1.00;1.00;;;16.70;99.90;;;;;;5055537;28;20207;-63
2022/10/24 07:23:53;;;;;;;1.10;1.10;;;16.70;99.90;;;;;;5052389;28;20204;-64
2022/10/24 07:26:22;;;;;;;1.13;1.10;;;16.70;99.90;;;;;;5054864;28;20210;-63
2022/10/24 07:28:52;;;;;;;1.37;1.20;;;16.80;99.90;;;;;;5050915;28;20231;-63
2022/10/24 07:31:20;;;;;;;1.23;1.23;;;16.80;99.90;;;;;;5050755;28;20536;-63
2022/10/24 07:33:47;;;;;;;1.70;1.40;;;16.90;99.90;;;;;;5054564;28;20207;-63
2022/10/24 07:36:16;;;;;;;1.57;1.40;;;16.90;99.90;;;;;;5054674;28;20224;-63
2022/10/24 07:38:43;;;;;;;1.60;1.50;;;17.00;99.90;;;;;;5058854;28;20254;-63
2022/10/24 07:41:12;;;;;;;1.60;1.40;;;17.10;99.90;;;;;;5054831;28;20662;-64
2022/10/24 07:43:39;;;;;;;1.27;1.17;;;17.20;99.90;;;;;;5053316;28;20671;-62
2022/10/24 07:46:07;;;;;;;1.60;1.50;;;17.00;99.90;;;;;;5048352;28;20206;-63
2022/10/24 07:48:34;;;;;;;1.30;1.20;;;17.10;99.90;;;;;;5053705;28;20216;-64
2022/10/24 07:51:04;;;;;;;1.63;1.33;;;17.10;99.90;;;;;;5054295;28;20201;-61
2022/10/24 07:53:31;;;;;;;1.17;1.00;;;17.20;99.90;;;;;;5046150;28;20214;-61
2022/10/24 07:55:59;;;;;;;1.50;1.40;;;17.20;99.90;;;;;;5049462;28;20206;-62
2022/10/24 07:58:28;;;;;;;1.63;1.53;;;17.20;99.90;;;;;;5061917;28;20563;-64
2022/10/24 08:00:55;;;;;;;1.00;1.00;;;17.20;99.90;;;;;;5058050;28;20220;-63
2022/10/24 08:03:22;;;;;;;1.10;1.10;;;17.20;99.90;;;;;;5059486;28;20295;-61
2022/10/24 08:05:49;;;;;;;1.10;1.10;;;17.30;99.90;;;;;;5055465;28;20683;-63
2022/10/24 08:08:16;;;;;;;1.83;1.40;;;17.30;99.90;;;;;;5053813;28;20224;-62
2022/10/24 08:10:43;;;;;;;1.17;1.10;;;17.30;99.90;;;;;;5055837;28;20615;-62
2022/10/24 08:13:09;;;;;;;1.70;1.60;;;17.40;99.90;;;;;;5072634;28;20231;-61
2022/10/24 08:15:38;;;;;;;1.30;1.20;;;17.40;99.90;;;;;;5076929;28;20238;-62
2022/10/24 08:18:04;;;;;;;1.40;1.30;;;17.40;99.90;;;;;;5057405;28;20223;-64
2022/10/24 08:20:32;;;;;;;1.40;1.30;;;17.40;99.90;;;;;;5054420;28;20535;-62
2022/10/24 08:22:59;;;;;;;1.40;1.30;;;17.40;99.90;;;;;;5060034;28;20200;-62
2022/10/24 08:25:25;;;;;;;3.40;1.20;;;17.50;99.90;;;;;;5053678;28;20204;-63
2022/10/24 08:27:52;;;;;;;1.50;1.40;;;17.50;99.90;;;;;;5055188;28;20228;-61
2022/10/24 08:30:20;;;;;;;1.63;1.53;;;17.50;99.90;;;;;;5053528;28;20211;-64
2022/10/24 08:32:48;;;;;;;1.20;1.10;;;17.50;99.90;;;;;;5052716;28;20552;-64
2022/10/24 08:35:17;;;;;;;1.77;1.20;;;17.50;99.90;;;;;;5053349;28;20200;-61
2022/10/24 08:37:44;;;;;;;1.73;1.50;;;17.50;99.90;;;;;;5055005;28;20227;-62
2022/10/24 08:40:17;;;;;;;3.20;1.47;;;17.50;99.90;;;;;;5057503;28;20226;-61
2022/10/24 08:42:44;;;;;;;3.07;1.57;;;17.50;99.90;;;;;;5053248;28;20208;-62
2022/10/24 08:45:15;;;;;;;1.87;1.20;;;17.50;99.90;;;;;;5057393;28;20199;-64
2022/10/24 08:47:48;;;;;;;1.40;1.30;;;17.50;99.90;;;;;;5053472;28;20595;-64
2022/10/24 08:50:22;;;;;;;1.50;1.40;;;17.50;99.90;;;;;;5056410;28;20210;-62
2022/10/24 08:52:56;;;;;;;1.40;1.30;;;17.50;99.90;;;;;;5058381;28;20199;-62
2022/10/24 08:55:28;;;;;;;1.83;1.20;;;17.60;99.90;;;;;;5060381;28;20200;-63
2022/10/24 08:57:58;;;;;;;1.67;1.20;;;17.70;99.90;;;;;;5058774;28;20231;-63
2022/10/24 09:00:28;;;;;;;1.30;1.20;;;17.70;99.90;;;;;;5059625;28;20218;-63
2022/10/24 09:03:02;;;;;;;1.87;1.47;;;17.70;99.90;;;;;;5057925;28;20212;-63
2022/10/24 09:05:35;;;;;;;1.20;1.20;;;17.70;99.90;;;;;;5056531;28;20204;-63
2022/10/24 09:08:24;;;;;;;1.17;1.17;;;17.70;99.90;;;;;;5058343;28;20228;-63
2022/10/24 09:10:56;;;;;;;2.20;1.27;;;17.80;99.90;;;;;;5054823;28;20202;-63
2022/10/24 09:13:23;;;;;;;1.50;1.40;;;17.90;99.90;;;;;;5052350;28;20216;-63
2022/10/24 09:15:50;;;;;;;1.27;1.17;;;17.90;99.90;;;;;;5057733;28;20666;-65
2022/10/24 09:18:22;;;;;;;1.50;1.40;;;17.90;99.90;;;;;;5058800;28;20216;-63
2022/10/24 09:20:52;;;;;;;1.63;1.30;;;17.90;99.90;;;;;;5054078;28;20220;-64
2022/10/24 09:23:20;;;;;;;1.87;1.30;;;17.90;99.90;;;;;;5054423;28;20199;-63
2022/10/24 09:25:52;;;;;;;1.60;1.50;;;17.90;99.90;;;;;;5051245;28;20200;-63
2022/10/24 09:28:19;;;;;;;1.50;1.40;;;18.00;99.90;;;;;;5056183;28;20326;-63
2022/10/24 09:30:46;;;;;;;2.27;1.33;;;17.90;99.90;;;;;;5056149;28;20200;-62
2022/10/24 09:33:24;;;;;;;1.37;1.27;;;18.00;99.90;;;;;;5057734;28;20200;-62
2022/10/24 09:35:55;;;;;;;1.40;1.30;;;18.00;99.90;;;;;;5056423;28;20208;-63
2022/10/24 09:38:30;;;;;;;1.73;1.30;;;18.00;99.90;;;;;;5061723;28;20219;-62
2022/10/24 09:41:01;;;;;;;1.50;1.40;;;18.00;99.90;;;;;;5065544;28;20235;-62
2022/10/24 09:43:33;;;;;;;1.37;1.27;;;18.10;99.90;;;;;;5060858;28;20206;-62
2022/10/24 09:46:03;;;;;;;1.40;1.30;;;18.10;99.90;;;;;;5057219;28;20250;-63
2022/10/24 09:48:36;;;;;;;1.50;1.40;;;18.10;99.90;;;;;;5057710;28;20223;-62
2022/10/24 09:51:06;;;;;;;1.47;1.10;;;18.20;99.90;;;;;;5051704;28;20254;-63
2022/10/24 09:53:35;;;;;;;1.53;1.30;;;18.20;99.90;;;;;;5059792;28;20204;-63
2022/10/24 09:56:12;;;;;;;1.50;1.40;;;18.30;99.90;;;;;;5054222;28;20220;-61
2022/10/24 09:58:39;;;;;;;1.13;1.13;;;18.20;99.90;;;;;;5054229;28;20223;-63
2022/10/24 10:01:19;;;;;;;1.40;1.30;;;18.20;99.90;;;;;;5051577;28;20216;-63
2022/10/24 10:04:01;;;;;;;1.07;1.07;;;18.20;99.90;;;;;;5053728;28;20261;-63
2022/10/24 10:06:30;;;;;;;1.10;1.10;;;18.30;99.90;;;;;;5058316;28;20282;-63
2022/10/24 10:08:58;;;;;;;1.50;1.40;;;18.40;99.90;;;;;;5060197;28;20226;-63
2022/10/24 10:11:29;;;;;;;1.30;1.23;;;18.40;99.90;;;;;;5054973;28;20623;-64
2022/10/24 10:13:58;;;;;;;1.20;1.20;;;18.40;99.90;;;;;;5053124;28;20208;-63
2022/10/24 10:16:28;;;;;;;1.30;1.20;;;18.50;99.90;;;;;;5056619;28;20680;-62
2022/10/24 10:19:03;;;;;;;1.50;1.30;;;18.50;99.90;;;;;;5054175;28;20612;-61
2022/10/24 10:21:53;;;;;;;1.33;1.17;;;18.50;99.90;;;;;;5055173;28;20215;-62
2022/10/24 10:24:26;;;;;;;1.40;1.20;;;18.60;99.90;;;;;;5054932;28;20195;-61
2022/10/24 10:26:53;;;;;;;1.23;1.13;;;18.60;99.90;;;;;;5056792;28;20204;-63
2022/10/24 10:29:23;;;;;;;1.67;1.30;;;18.70;99.90;;;;;;5060863;28;20239;-61
2022/10/24 10:31:54;;;;;;;1.40;1.30;;;18.80;99.90;;;;;;5055996;28;20199;-62
2022/10/24 10:34:28;;;;;;;1.30;1.03;;;18.90;99.90;;;;;;5061023;28;20199;-62
2022/10/24 10:37:21;;;;;;;1.37;1.27;;;18.90;99.90;;;;;;5061144;28;20210;-61
2022/10/24 10:40:19;;;;;;;1.40;1.30;;;19.10;99.90;;;;;;5054040;28;20219;-61
2022/10/24 10:43:00;;;;;;;1.40;1.30;;;19.20;99.90;;;;;;5053026;28;20637;-61
2022/10/24 10:45:35;;;;;;;1.47;1.33;;;19.30;99.90;;;;;;5057549;28;20210;-61
2022/10/24 10:48:17;;;;;;;1.40;1.30;;;19.30;99.90;;;;;;5056383;28;20223;-61
2022/10/24 10:50:51;;;;;;;1.23;1.13;;;19.40;99.90;;;;;;5058032;28;20234;-60
2022/10/24 10:53:32;;;;;;;1.93;1.40;;;19.50;99.90;;;;;;5059147;28;20204;-63
2022/10/24 10:56:10;;;;;;;1.27;1.20;;;19.50;99.90;;;;;;5058471;28;20223;-61
2022/10/24 10:58:44;;;;;;;1.40;1.30;;;19.50;99.90;;;;;;5058715;28;20238;-63
2022/10/24 11:01:20;;;;;;;1.27;1.17;;;19.60;99.90;;;;;;5055697;28;20218;-62
2022/10/24 11:03:54;;;;;;;1.73;1.37;;;19.70;99.90;;;;;;5059956;28;20200;-63
2022/10/24 11:06:32;;;;;;;1.52;1.38;;;19.70;99.90;;;;;;5058343;28;20199;-62
2022/10/24 11:09:28;;;;;;;1.30;1.20;;;19.80;99.90;;;;;;5059804;28;20228;-61
2022/10/24 11:12:01;;;;;;;1.30;1.20;;;19.90;99.90;;;;;;5058378;28;20663;-62
2022/10/24 11:14:33;;;;;;;0.90;0.90;;;19.90;99.90;;;;;;5055847;28;20283;-63
2022/10/24 11:17:09;;;;;;;1.20;1.17;;;20.00;99.90;;;;;;5053278;28;20204;-63
2022/10/24 11:19:44;;;;;;;1.43;1.30;;;20.00;99.90;;;;;;5058764;28;20717;-63
2022/10/24 11:22:19;;;;;;;1.77;1.43;;;20.00;99.90;;;;;;5058629;28;20205;-62
2022/10/24 11:24:55;;;;;;;1.77;1.47;;;20.00;99.90;;;;;;5057004;28;20261;-62
2022/10/24 11:27:25;;;;;;;1.70;1.60;;;20.00;99.90;;;;;;5057956;28;20237;-63
2022/10/24 11:29:57;;;;;;;1.50;1.30;;;20.00;99.90;;;;;;5059976;28;20204;-62
2022/10/24 11:32:31;;;;;;;1.43;1.33;;;20.10;99.90;;;;;;5059013;28;20196;-61
2022/10/24 11:35:01;;;;;;;1.50;1.40;;;20.10;99.90;;;;;;5055940;28;20678;-63
2022/10/24 11:37:33;;;;;;;1.43;1.20;;;20.10;99.90;;;;;;5060549;28;20220;-63
2022/10/24 11:40:09;;;;;;;1.00;1.00;;;20.10;99.90;;;;;;5054508;28;20591;-62
2022/10/24 11:42:42;;;;;;;1.87;1.50;;;20.10;99.90;;;;;;5059703;28;20208;-63
2022/10/24 11:45:12;;;;;;;4.75;1.60;;;20.20;99.90;;;;;;5054238;28;20203;-63
2022/10/24 11:47:47;;;;;;;1.20;1.10;;;20.20;99.90;;;;;;5060757;28;20223;-63
2022/10/24 11:50:21;;;;;;;2.20;1.43;;;20.30;99.90;;;;;;5057015;28;20302;-63
2022/10/24 11:52:51;;;;;;;1.73;1.00;;;20.40;99.90;;;;;;5054354;28;20290;-62
2022/10/24 11:55:22;;;;;;;1.10;1.10;;;20.40;99.90;;;;;;5077691;22;20236;-68
2022/10/24 11:57:52;;;;;;;2.23;1.50;;;20.40;99.90;;;;;;5054645;28;20204;-67
2022/10/24 12:00:21;;;;;;;1.27;1.23;;;20.40;99.90;;;;;;5056480;28;20283;-69
2022/10/24 12:03:24;;;;;;;1.77;1.30;;;20.40;99.90;;;;;;5054020;28;20204;-68
2022/10/24 12:06:27;;;;;;;1.37;1.27;;;20.40;99.90;;;;;;5031366;28;20216;-68
2022/10/24 12:09:23;;;;;;;2.10;1.40;;;20.60;99.90;;;;;;5032271;28;21084;-67
2022/10/24 12:12:02;;;;;;;1.30;1.20;;;20.60;99.90;;;;;;5019561;28;20197;-68
2022/10/24 12:14:51;;;;;;;1.33;1.20;;;20.70;99.90;;;;;;5033275;28;20228;-68
2022/10/24 12:17:36;;;;;;;1.40;1.30;;;20.70;99.90;;;;;;5032882;28;20196;-68
2022/10/24 12:20:06;;;;;;;1.80;1.43;;;20.80;99.90;;;;;;5033338;28;20205;-69
2022/10/24 12:22:36;;;;;;;1.47;1.07;;;20.80;99.90;;;;;;5032930;28;20197;-68
2022/10/24 12:25:07;;;;;;;1.63;1.30;;;20.90;99.90;;;;;;5036718;28;20220;-69
2022/10/24 12:27:39;;;;;;;1.30;1.20;;;20.80;99.90;;;;;;5037363;28;20365;-67
2022/10/24 12:30:17;;;;;;;1.63;1.40;;;20.80;99.90;;;;;;5031935;28;20263;-68
2022/10/24 12:32:46;;;;;;;1.37;1.27;;;20.90;99.90;;;;;;5032387;28;20205;-69
2022/10/24 12:35:47;;;;;;;1.73;1.23;;;20.90;99.90;;;;;;5030256;28;20225;-68
2022/10/24 12:38:16;;;;;;;1.13;1.13;;;20.90;99.90;;;;;;5031550;28;20204;-68
2022/10/24 12:40:56;;;;;;;1.67;1.43;;;21.00;99.90;;;;;;5032859;28;20224;-67
2022/10/24 12:43:34;;;;;;;1.90;1.50;;;21.00;99.90;;;;;;5032390;28;20205;-68
2022/10/24 12:46:22;;;;;;;1.50;1.40;;;21.00;99.90;;;;;;5032752;28;20197;-67
2022/10/24 12:49:18;;;;;;;1.37;1.23;;;21.00;99.90;;;;;;5001841;28;20740;-68
2022/10/24 12:51:45;;;;;;;1.30;1.20;;;21.00;99.90;;;;;;5031391;28;20430;-68
2022/10/24 12:54:21;;;;;;;1.40;1.30;;;21.10;99.90;;;;;;5032157;28;20604;-68
2022/10/24 12:57:25;;;;;;;1.43;1.30;;;21.10;99.90;;;;;;5032479;28;20204;-68
2022/10/24 12:59:57;;;;;;;1.80;1.40;;;21.00;99.90;;;;;;5030617;28;20595;-68
2022/10/24 13:03:00;;;;;;;1.23;1.13;;;21.10;99.90;;;;;;5032163;28;20748;-68
2022/10/24 13:05:57;;;;;;;1.33;1.20;;;21.00;99.90;;;;;;5027230;28;20232;-69
2022/10/24 13:08:44;;;;;;;1.37;1.33;;;21.00;99.90;;;;;;5032292;28;20200;-68